Time;durP1;ratioP1;P1;durP2;ratioP2;P2;SDS_P1;SDS_P2;PMS_P1;PMS_P2;Temp;Humidity;BMP_temperature;BMP_pressure;BME280_temperature;BME280_humidity;BME280_pressure;Samples;Min_cycle;Max_cycle;Signal;HPM_P1;HPM_P2
2023/07/14 00:02:19;;;;;;;;;;;;;;;23.33;29.29;97728.00;4940463;29;909;-76
2023/07/14 00:04:45;;;;;;;;;;;;;;;23.45;29.02;97734.03;4940151;29;932;-76
2023/07/14 00:07:12;;;;;;;;;;;;;;;23.30;29.29;97728.13;4940442;29;973;-75
2023/07/14 00:09:42;;;;;;;;;;;;;;;23.34;29.20;97715.38;4924649;29;1911;-76
2023/07/14 00:12:07;;;;;;;;;;;;;;;23.43;29.05;97726.00;4957707;28;1062;-75
2023/07/14 00:14:33;;;;;;;;;;;;;;;23.21;29.42;97714.66;4997024;28;1018;-77
2023/07/14 00:16:59;;;;;;;;;;;;;;;23.34;29.03;97718.22;5000872;28;925;-75
2023/07/14 00:19:24;;;;;;;;;;;;;;;23.34;29.15;97709.69;5000206;28;891;-76
2023/07/14 00:21:50;;;;;;;;;;;;;;;23.38;29.19;97701.84;4966556;28;1004;-76
2023/07/14 00:24:16;;;;;;;;;;;;;;;23.31;29.20;97713.47;5000351;28;1229;-75
2023/07/14 00:26:43;;;;;;;;;;;;;;;23.43;29.19;97702.50;5000178;28;890;-76
2023/07/14 00:29:24;;;;;;;;;;;;;;;23.62;28.77;97698.47;4982966;28;1967;-76
2023/07/14 00:31:49;;;;;;;;;;;;;;;23.38;28.94;97690.47;4967142;28;1101;-76
2023/07/14 00:34:15;;;;;;;;;;;;;;;23.32;29.09;97692.34;4966697;28;1142;-75
2023/07/14 00:36:40;;;;;;;;;;;;;;;23.39;28.88;97697.72;4982892;28;1505;-76
2023/07/14 00:39:06;;;;;;;;;;;;;;;23.45;28.91;97694.28;4999717;28;1046;-76
2023/07/14 00:41:31;;;;;;;;;;;;;;;23.40;29.22;97699.31;4982759;28;1292;-76
2023/07/14 00:43:58;;;;;;;;;;;;;;;23.49;28.91;97706.31;4965701;28;1134;-76
2023/07/14 00:46:25;;;;;;;;;;;;;;;23.34;29.02;97706.84;4982872;28;975;-76
2023/07/14 00:48:52;;;;;;;;;;;;;;;23.37;29.27;97705.16;4982220;28;1906;-76
2023/07/14 00:51:18;;;;;;;;;;;;;;;23.37;29.02;97694.59;4982848;28;869;-75
2023/07/14 00:53:44;;;;;;;;;;;;;;;23.57;28.83;97708.41;4982205;28;1031;-76
2023/07/14 00:56:10;;;;;;;;;;;;;;;23.47;28.65;97697.47;4982460;28;875;-76
2023/07/14 00:58:36;;;;;;;;;;;;;;;23.47;28.80;97691.78;4966401;28;1255;-76
2023/07/14 01:01:02;;;;;;;;;;;;;;;23.52;28.58;97688.31;4982456;28;958;-76
2023/07/14 01:03:28;;;;;;;;;;;;;;;23.26;29.32;97682.84;4982128;28;884;-75
2023/07/14 01:05:53;;;;;;;;;;;;;;;23.25;29.16;97681.25;4981716;28;986;-75
2023/07/14 01:08:19;;;;;;;;;;;;;;;23.27;29.36;97677.97;4982078;28;1127;-76
2023/07/14 01:10:45;;;;;;;;;;;;;;;23.22;29.28;97676.50;4966061;28;1985;-76
2023/07/14 01:13:11;;;;;;;;;;;;;;;23.07;29.67;97664.13;4982368;28;992;-76
2023/07/14 01:15:37;;;;;;;;;;;;;;;23.17;29.36;97671.44;4981543;28;877;-76
2023/07/14 01:18:03;;;;;;;;;;;;;;;23.38;28.92;97669.81;4982040;28;882;-76
2023/07/14 01:20:30;;;;;;;;;;;;;;;23.35;28.81;97663.00;4981883;28;900;-77
2023/07/14 01:22:59;;;;;;;;;;;;;;;23.22;29.33;97668.00;4999033;28;1549;-76
2023/07/14 01:25:25;;;;;;;;;;;;;;;23.15;29.28;97668.25;4998786;28;875;-75
2023/07/14 01:27:50;;;;;;;;;;;;;;;23.14;29.17;97663.84;4999322;28;916;-75
2023/07/14 01:30:17;;;;;;;;;;;;;;;23.05;29.50;97666.63;4981823;28;1910;-76
2023/07/14 01:32:46;;;;;;;;;;;;;;;23.35;29.03;97662.22;4982119;28;738;-75
2023/07/14 01:35:13;;;;;;;;;;;;;;;23.52;28.82;97654.25;4949427;28;1426;-76
2023/07/14 01:37:39;;;;;;;;;;;;;;;23.27;29.13;97653.19;4981627;28;952;-75
2023/07/14 01:40:11;;;;;;;;;;;;;;;23.16;29.41;97669.03;4981573;28;924;-75
2023/07/14 01:42:38;;;;;;;;;;;;;;;23.31;29.17;97668.06;4981149;28;1219;-76
2023/07/14 01:45:04;;;;;;;;;;;;;;;23.18;29.42;97664.50;4965211;28;1475;-76
2023/07/14 01:47:30;;;;;;;;;;;;;;;23.31;29.18;97672.91;4922798;29;1062;-76
2023/07/14 01:49:57;;;;;;;;;;;;;;;23.23;29.30;97666.75;4922629;29;1985;-75
2023/07/14 01:52:24;;;;;;;;;;;;;;;23.18;29.61;97664.50;4938259;29;928;-76
2023/07/14 01:54:51;;;;;;;;;;;;;;;22.94;29.81;97660.56;4938441;29;923;-76
2023/07/14 01:57:18;;;;;;;;;;;;;;;23.16;29.26;97661.34;4922404;29;1156;-76
2023/07/14 01:59:44;;;;;;;;;;;;;;;23.42;28.98;97666.84;4922442;29;1110;-75
2023/07/14 02:02:11;;;;;;;;;;;;;;;23.52;28.67;97665.59;4922518;29;1134;-76
2023/07/14 02:04:37;;;;;;;;;;;;;;;23.36;28.90;97670.28;4922180;29;1189;-76
2023/07/14 02:07:03;;;;;;;;;;;;;;;23.13;29.24;97673.59;4922765;29;1113;-76
2023/07/14 02:09:29;;;;;;;;;;;;;;;23.35;28.80;97674.38;4922135;29;1911;-76
2023/07/14 02:11:59;;;;;;;;;;;;;;;23.15;29.43;97676.75;4937904;29;1019;-75
2023/07/14 02:14:25;;;;;;;;;;;;;;;23.26;29.27;97674.34;4938366;29;1005;-75
2023/07/14 02:16:50;;;;;;;;;;;;;;;23.01;29.46;97677.31;4921680;29;1129;-75
2023/07/14 02:19:21;;;;;;;;;;;;;;;22.71;29.87;97679.59;4958018;28;1268;-75
2023/07/14 02:21:50;;;;;;;;;;;;;;;23.06;29.51;97685.25;4922695;29;1183;-76
2023/07/14 02:24:19;;;;;;;;;;;;;;;23.26;29.54;97687.72;4937656;29;1311;-76
2023/07/14 02:26:45;;;;;;;;;;;;;;;23.04;29.65;97677.16;4938283;29;927;-75
2023/07/14 02:29:11;;;;;;;;;;;;;;;23.32;29.28;97678.16;4922059;29;1980;-76
2023/07/14 02:31:39;;;;;;;;;;;;;;;23.44;29.19;97676.47;4937745;29;1116;-76
2023/07/14 02:34:04;;;;;;;;;;;;;;;23.37;28.95;97679.59;4906488;29;1128;-76
2023/07/14 02:36:36;;;;;;;;;;;;;;;23.40;29.21;97687.97;4937738;29;949;-76
2023/07/14 02:39:03;;;;;;;;;;;;;;;22.98;29.81;97678.25;4899384;29;907;-77
2023/07/14 02:41:29;;;;;;;;;;;;;;;22.96;29.85;97675.09;4884447;29;1057;-76
2023/07/14 02:43:57;;;;;;;;;;;;;;;23.30;29.19;97677.00;4884565;29;1196;-76
2023/07/14 02:46:25;;;;;;;;;;;;;;;22.97;29.63;97659.63;4883844;29;920;-76
2023/07/14 02:48:50;;;;;;;;;;;;;;;23.20;29.42;97652.66;4899533;29;1972;-76
2023/07/14 02:51:16;;;;;;;;;;;;;;;23.02;29.20;97644.84;4883952;29;945;-75
2023/07/14 02:53:42;;;;;;;;;;;;;;;23.20;29.28;97639.28;4900071;29;911;-75
2023/07/14 02:56:07;;;;;;;;;;;;;;;23.46;28.86;97645.53;4918619;29;929;-76
2023/07/14 02:58:33;;;;;;;;;;;;;;;23.28;29.08;97657.63;4918408;29;928;-76
2023/07/14 03:00:59;;;;;;;;;;;;;;;23.53;28.60;97650.19;4918463;29;993;-75
2023/07/14 03:03:24;;;;;;;;;;;;;;;23.47;28.62;97652.03;4946379;28;1252;-75
2023/07/14 03:05:51;;;;;;;;;;;;;;;23.25;29.32;97652.84;4960052;28;820;-77
2023/07/14 03:08:17;;;;;;;;;;;;;;;23.50;28.71;97662.44;4959321;28;1029;-76
2023/07/14 03:10:43;;;;;;;;;;;;;;;23.46;28.84;97664.63;4990741;28;1986;-76
2023/07/14 03:13:09;;;;;;;;;;;;;;;23.23;29.40;97672.41;4959216;28;1229;-77
2023/07/14 03:15:34;;;;;;;;;;;;;;;23.31;29.28;97659.53;4943216;28;1271;-77
2023/07/14 03:18:00;;;;;;;;;;;;;;;23.50;28.88;97656.78;4959194;28;956;-76
2023/07/14 03:20:26;;;;;;;;;;;;;;;23.27;29.20;97644.69;4943191;28;1227;-77
2023/07/14 03:22:51;;;;;;;;;;;;;;;23.05;29.58;97643.91;4975417;28;1102;-76
2023/07/14 03:25:17;;;;;;;;;;;;;;;23.02;29.43;97650.53;4959193;28;897;-78
2023/07/14 03:27:44;;;;;;;;;;;;;;;23.39;28.93;97660.81;4943340;28;1145;-77
2023/07/14 03:30:09;;;;;;;;;;;;;;;23.50;28.68;97657.56;4946279;28;1906;-77
2023/07/14 03:32:35;;;;;;;;;;;;;;;23.53;28.90;97667.22;4963171;28;1236;-77
2023/07/14 03:35:01;;;;;;;;;;;;;;;23.46;29.03;97661.78;4979734;28;1025;-76
2023/07/14 03:37:26;;;;;;;;;;;;;;;23.43;28.90;97663.53;4963802;28;869;-77
2023/07/14 03:39:52;;;;;;;;;;;;;;;23.52;28.75;97657.09;4963534;28;932;-76
2023/07/14 03:42:17;;;;;;;;;;;;;;;23.14;29.38;97663.84;4947375;28;1208;-77
2023/07/14 03:44:43;;;;;;;;;;;;;;;23.24;29.27;97656.97;4979201;28;982;-77
2023/07/14 03:47:09;;;;;;;;;;;;;;;23.33;29.01;97664.75;4963279;28;1294;-77
2023/07/14 03:49:35;;;;;;;;;;;;;;;23.43;28.97;97662.75;4947243;28;1910;-77
2023/07/14 03:52:00;;;;;;;;;;;;;;;23.52;28.98;97676.97;4980308;28;883;-77
2023/07/14 03:54:26;;;;;;;;;;;;;;;23.09;29.60;97667.28;4980118;28;914;-77
2023/07/14 03:56:54;;;;;;;;;;;;;;;23.24;29.64;97667.53;4963965;28;1279;-77
2023/07/14 03:59:20;;;;;;;;;;;;;;;23.36;29.33;97673.13;4981285;28;864;-76
2023/07/14 04:01:46;;;;;;;;;;;;;;;23.21;29.74;97679.78;4964173;28;1117;-77
2023/07/14 04:04:12;;;;;;;;;;;;;;;23.30;29.45;97680.63;4964044;28;1258;-76
2023/07/14 04:06:37;;;;;;;;;;;;;;;22.97;29.86;97688.81;4981467;28;925;-77
2023/07/14 04:09:03;;;;;;;;;;;;;;;23.48;28.92;97688.47;4979654;28;1907;-77
2023/07/14 04:11:31;;;;;;;;;;;;;;;23.50;29.00;97690.84;4964200;28;1180;-77
2023/07/14 04:13:57;;;;;;;;;;;;;;;23.48;28.85;97701.91;4979689;28;1049;-77
2023/07/14 04:16:23;;;;;;;;;;;;;;;23.12;29.47;97701.19;4979851;28;1571;-76
2023/07/14 04:18:49;;;;;;;;;;;;;;;23.51;29.07;97715.16;4980820;28;856;-77
2023/07/14 04:21:14;;;;;;;;;;;;;;;23.40;29.05;97716.34;4979652;28;1145;-77
2023/07/14 04:23:40;;;;;;;;;;;;;;;23.37;29.13;97717.28;4946132;28;1188;-77
2023/07/14 04:26:07;;;;;;;;;;;;;;;23.30;29.37;97733.78;4962512;28;880;-77
2023/07/14 04:28:33;;;;;;;;;;;;;;;23.24;29.50;97742.13;4946682;28;1907;-77
2023/07/14 04:31:00;;;;;;;;;;;;;;;23.50;29.31;97734.22;4962417;28;1212;-77
2023/07/14 04:33:26;;;;;;;;;;;;;;;23.42;29.71;97746.34;4946022;28;878;-77
2023/07/14 04:35:52;;;;;;;;;;;;;;;23.14;29.80;97752.59;4946217;28;1041;-77
2023/07/14 04:38:18;;;;;;;;;;;;;;;23.17;30.26;97781.34;4946667;28;1128;-77
2023/07/14 04:40:44;;;;;;;;;;;;;;;23.27;29.84;97797.97;4961569;28;1010;-77
2023/07/14 04:43:10;;;;;;;;;;;;;;;23.70;29.90;97835.38;4961980;28;1046;-74
2023/07/14 04:45:42;;;;;;;;;;;;;;;23.45;30.37;97831.38;4994334;28;1001;-74
2023/07/14 04:48:08;;;;;;;;;;;;;;;23.67;30.21;97831.41;4984347;28;1468;-75
2023/07/14 04:50:34;;;;;;;;;;;;;;;23.51;30.66;97834.41;5000447;28;1910;-74
2023/07/14 04:53:00;;;;;;;;;;;;;;;23.38;31.11;97829.59;5017116;28;970;-74
2023/07/14 04:55:26;;;;;;;;;;;;;;;23.46;31.05;97835.81;4974180;28;974;-75
2023/07/14 04:57:52;;;;;;;;;;;;;;;23.52;30.92;97833.16;4961868;28;983;-75
2023/07/14 05:00:18;;;;;;;;;;;;;;;23.34;31.22;97834.63;4977925;28;1010;-76
2023/07/14 05:02:43;;;;;;;;;;;;;;;23.26;31.17;97824.78;4977564;28;918;-75
2023/07/14 05:05:27;;;;;;;;;;;;;;;23.54;30.86;97830.66;4961603;28;917;-75
2023/07/14 05:07:53;;;;;;;;;;;;;;;23.32;31.22;97825.78;4977404;28;940;-75
2023/07/14 05:10:19;;;;;;;;;;;;;;;23.56;30.80;97814.72;4961603;28;1915;-75
2023/07/14 05:12:45;;;;;;;;;;;;;;;23.40;31.23;97812.88;4961609;28;928;-75
2023/07/14 05:15:10;;;;;;;;;;;;;;;23.71;30.62;97815.03;4961551;28;988;-76
2023/07/14 05:17:36;;;;;;;;;;;;;;;23.53;31.05;97826.25;4977963;28;877;-75
2023/07/14 05:20:02;;;;;;;;;;;;;;;23.53;30.96;97838.41;4961604;28;930;-75
2023/07/14 05:22:28;;;;;;;;;;;;;;;23.71;30.66;97834.91;4962030;28;1078;-75
2023/07/14 05:24:54;;;;;;;;;;;;;;;23.40;31.17;97846.16;4962087;28;849;-75
2023/07/14 05:27:20;;;;;;;;;;;;;;;23.48;31.06;97860.91;4977703;28;904;-75
2023/07/14 05:29:46;;;;;;;;;;;;;;;23.55;31.27;97869.16;4938876;29;1910;-75
2023/07/14 05:32:12;;;;;;;;;;;;;;;23.34;31.22;97874.38;4946802;28;1287;-75
2023/07/14 05:34:37;;;;;;;;;;;;;;;23.33;31.49;97904.00;4961110;28;947;-75
2023/07/14 05:37:03;;;;;;;;;;;;;;;23.45;31.29;97912.94;4977406;28;917;-75
2023/07/14 05:39:29;;;;;;;;;;;;;;;23.54;31.15;97935.75;4977010;28;929;-76
2023/07/14 05:41:58;;;;;;;;;;;;;;;23.61;31.16;97949.69;4961191;28;972;-76
2023/07/14 05:44:24;;;;;;;;;;;;;;;23.83;30.88;97947.72;4945485;28;1207;-76
2023/07/14 05:46:50;;;;;;;;;;;;;;;23.30;31.83;97944.66;4938549;29;977;-76
2023/07/14 05:49:16;;;;;;;;;;;;;;;23.61;31.21;97946.84;4938234;29;1981;-75
2023/07/14 05:51:41;;;;;;;;;;;;;;;23.52;31.62;97924.03;4922307;29;887;-76
2023/07/14 05:54:07;;;;;;;;;;;;;;;23.85;31.28;97898.94;4938242;29;939;-75
2023/07/14 05:56:33;;;;;;;;;;;;;;;23.63;31.53;97905.41;4923032;29;1171;-75
2023/07/14 05:58:59;;;;;;;;;;;;;;;23.75;31.50;97903.75;4922355;29;1241;-75
2023/07/14 06:01:24;;;;;;;;;;;;;;;23.58;31.91;97897.44;4903342;29;977;-75
2023/07/14 06:03:50;;;;;;;;;;;;;;;23.52;31.79;97887.94;4919271;29;928;-75
2023/07/14 06:06:15;;;;;;;;;;;;;;;23.49;32.02;97877.47;4903625;29;946;-75
2023/07/14 06:08:42;;;;;;;;;;;;;;;23.47;32.16;97887.72;4903722;29;1919;-76
2023/07/14 06:11:07;;;;;;;;;;;;;;;23.44;32.14;97889.44;4919117;29;948;-76
2023/07/14 06:13:33;;;;;;;;;;;;;;;23.70;31.91;97887.31;4919387;29;1114;-75
2023/07/14 06:15:59;;;;;;;;;;;;;;;23.74;31.83;97876.59;4918922;29;1017;-75
2023/07/14 06:18:25;;;;;;;;;;;;;;;23.73;31.80;97880.72;4903348;29;916;-75
2023/07/14 06:20:50;;;;;;;;;;;;;;;23.59;32.12;97881.19;4933701;29;952;-76
2023/07/14 06:23:16;;;;;;;;;;;;;;;23.53;31.77;97877.38;4937844;29;1203;-75
2023/07/14 06:25:42;;;;;;;;;;;;;;;23.78;31.77;97888.63;4938748;29;935;-76
2023/07/14 06:28:08;;;;;;;;;;;;;;;23.68;32.00;97884.13;4922178;29;952;-76
2023/07/14 06:30:34;;;;;;;;;;;;;;;23.63;31.78;97887.56;4922108;29;1911;-75
2023/07/14 06:33:01;;;;;;;;;;;;;;;23.82;31.46;97889.28;4970120;28;892;-75
2023/07/14 06:35:27;;;;;;;;;;;;;;;23.91;31.48;97906.38;4947504;28;1314;-74
2023/07/14 06:37:52;;;;;;;;;;;;;;;23.97;31.28;97917.16;4963834;28;1073;-75
2023/07/14 06:40:20;;;;;;;;;;;;;;;23.95;31.26;97925.38;4947987;28;1129;-76
2023/07/14 06:42:46;;;;;;;;;;;;;;;23.69;31.94;97916.97;4980128;28;1012;-76
2023/07/14 06:45:12;;;;;;;;;;;;;;;23.63;31.90;97915.97;4931085;28;1166;-75
2023/07/14 06:47:38;;;;;;;;;;;;;;;23.59;32.26;97920.97;4980293;28;823;-76
2023/07/14 06:50:03;;;;;;;;;;;;;;;23.80;31.54;97931.56;4957280;29;1989;-75
2023/07/14 06:52:30;;;;;;;;;;;;;;;23.64;31.92;97935.38;4946160;28;1357;-76
2023/07/14 06:54:57;;;;;;;;;;;;;;;23.54;31.87;97938.59;4963610;28;947;-75
2023/07/14 06:57:22;;;;;;;;;;;;;;;23.51;31.83;97937.44;4980192;28;997;-76
2023/07/14 06:59:48;;;;;;;;;;;;;;;23.04;32.51;97934.63;4979456;28;979;-76
2023/07/14 07:02:14;;;;;;;;;;;;;;;23.34;32.18;97933.19;4980029;28;940;-76
2023/07/14 07:04:39;;;;;;;;;;;;;;;23.73;31.30;97920.47;4963371;28;1285;-75
2023/07/14 07:07:05;;;;;;;;;;;;;;;23.59;31.51;97921.75;4995608;28;1044;-75
2023/07/14 07:09:30;;;;;;;;;;;;;;;24.03;30.91;97915.28;4979295;28;1987;-75
2023/07/14 07:11:56;;;;;;;;;;;;;;;23.68;30.95;97912.56;4995956;28;835;-76
2023/07/14 07:14:22;;;;;;;;;;;;;;;23.82;30.85;97922.56;4979532;28;1366;-76
2023/07/14 07:16:48;;;;;;;;;;;;;;;23.69;30.82;97934.00;4957034;29;1385;-76
2023/07/14 07:19:14;;;;;;;;;;;;;;;23.91;30.46;97936.84;4956788;29;976;-77
2023/07/14 07:21:40;;;;;;;;;;;;;;;23.76;30.85;97930.91;4970806;28;1013;-76
2023/07/14 07:24:06;;;;;;;;;;;;;;;23.56;30.90;97931.19;4995514;28;1206;-75
2023/07/14 07:26:31;;;;;;;;;;;;;;;23.58;30.99;97920.16;4956631;28;961;-76
2023/07/14 07:28:57;;;;;;;;;;;;;;;23.90;30.46;97940.97;4956683;29;1972;-75
2023/07/14 07:31:23;;;;;;;;;;;;;;;23.43;31.52;97947.47;4941157;29;870;-76
2023/07/14 07:33:48;;;;;;;;;;;;;;;23.62;31.12;97931.38;4937235;29;1006;-76
2023/07/14 07:36:14;;;;;;;;;;;;;;;23.60;30.86;97946.06;4937867;29;969;-75
2023/07/14 07:38:43;;;;;;;;;;;;;;;23.67;30.55;97947.06;4921568;29;833;-76
2023/07/14 07:41:09;;;;;;;;;;;;;;;23.56;30.79;97944.59;4921812;29;923;-75
2023/07/14 07:43:35;;;;;;;;;;;;;;;23.40;31.19;97946.34;4905942;29;798;-75
2023/07/14 07:46:00;;;;;;;;;;;;;;;23.71;30.67;97954.22;4918686;29;893;-75
2023/07/14 07:48:26;;;;;;;;;;;;;;;23.39;31.14;97944.75;4918328;29;999;-76
2023/07/14 07:50:51;;;;;;;;;;;;;;;23.65;30.80;97954.00;4918728;29;1981;-77
2023/07/14 07:53:17;;;;;;;;;;;;;;;23.42;30.96;97954.41;4920246;29;1042;-76
2023/07/14 07:55:50;;;;;;;;;;;;;;;23.32;31.01;97953.53;4906052;29;1067;-76
2023/07/14 07:58:16;;;;;;;;;;;;;;;23.59;30.91;97955.84;4905607;29;958;-75
2023/07/14 08:00:43;;;;;;;;;;;;;;;23.56;30.87;97953.09;4937550;29;992;-76
2023/07/14 08:03:09;;;;;;;;;;;;;;;23.43;30.98;97953.16;4937066;29;973;-75
2023/07/14 08:05:34;;;;;;;;;;;;;;;23.47;31.02;97942.47;4953516;28;1020;-76
2023/07/14 08:08:00;;;;;;;;;;;;;;;23.61;30.69;97935.47;4959988;28;901;-76
2023/07/14 08:10:26;;;;;;;;;;;;;;;23.63;30.35;97942.34;4976113;28;1979;-76
2023/07/14 08:12:52;;;;;;;;;;;;;;;23.74;30.30;97959.00;4975844;28;981;-76
2023/07/14 08:15:18;;;;;;;;;;;;;;;23.83;30.10;97956.22;4976795;28;1132;-76
2023/07/14 08:17:54;;;;;;;;;;;;;;;23.36;30.89;97945.69;5008365;28;866;-76
2023/07/14 08:20:19;;;;;;;;;;;;;;;23.51;30.57;97953.69;5019510;28;798;-76
2023/07/14 08:22:45;;;;;;;;;;;;;;;23.61;30.50;97936.28;5026905;28;1207;-76
2023/07/14 08:25:11;;;;;;;;;;;;;;;23.63;30.31;97939.50;4998927;28;1120;-75
2023/07/14 08:27:37;;;;;;;;;;;;;;;23.62;30.61;97934.22;4982649;28;783;-76
2023/07/14 08:30:05;;;;;;;;;;;;;;;23.57;30.79;97940.50;4962639;28;1962;-76
2023/07/14 08:32:32;;;;;;;;;;;;;;;23.59;30.56;97938.78;4947273;28;914;-75
2023/07/14 08:34:58;;;;;;;;;;;;;;;23.19;30.95;97932.88;4962925;28;947;-75
2023/07/14 08:37:23;;;;;;;;;;;;;;;23.56;30.67;97941.75;4963249;28;1327;-75
2023/07/14 08:39:49;;;;;;;;;;;;;;;23.49;30.86;97933.50;4946677;28;1156;-75
2023/07/14 08:42:22;;;;;;;;;;;;;;;23.56;30.78;97941.75;4947089;28;863;-76
2023/07/14 08:44:59;;;;;;;;;;;;;;;23.52;30.66;97935.41;4962420;28;868;-76
2023/07/14 08:47:26;;;;;;;;;;;;;;;23.58;30.97;97942.09;4947113;28;1190;-75
2023/07/14 08:50:03;;;;;;;;;;;;;;;23.43;30.98;97919.09;4962623;28;1910;-76
2023/07/14 08:52:30;;;;;;;;;;;;;;;23.53;30.81;97928.47;4947350;28;839;-76
2023/07/14 08:55:01;;;;;;;;;;;;;;;23.55;30.81;97931.66;4962333;28;1028;-75
2023/07/14 08:57:27;;;;;;;;;;;;;;;23.65;30.61;97925.59;4998207;28;896;-75
2023/07/14 08:59:56;;;;;;;;;;;;;;;23.56;30.88;97936.06;4982514;28;949;-76
2023/07/14 09:02:25;;;;;;;;;;;;;;;23.68;30.32;97925.97;5022057;28;886;-76
2023/07/14 09:05:00;;;;;;;;;;;;;;;23.57;30.48;97915.75;5039143;28;1132;-76
2023/07/14 09:07:26;;;;;;;;;;;;;;;23.32;30.84;97921.50;5022344;28;743;-75
2023/07/14 09:09:51;;;;;;;;;;;;;;;23.49;30.63;97930.66;5005143;28;1898;-76
2023/07/14 09:12:22;;;;;;;;;;;;;;;23.61;30.26;97930.59;5022013;28;834;-76
2023/07/14 09:15:06;;;;;;;;;;;;;;;23.37;30.79;97921.72;5005308;28;985;-76
2023/07/14 09:17:37;;;;;;;;;;;;;;;23.66;30.35;97923.56;5005312;28;866;-75
2023/07/14 09:20:31;;;;;;;;;;;;;;;23.79;30.11;97924.31;4978318;28;913;-75
2023/07/14 09:23:17;;;;;;;;;;;;;;;23.60;30.34;97923.31;4939336;29;1124;-75
2023/07/14 09:25:54;;;;;;;;;;;;;;;23.74;30.11;97921.28;4902010;29;976;-76
2023/07/14 09:28:39;;;;;;;;;;;;;;;23.32;30.66;97922.31;4901648;29;937;-76
2023/07/14 09:34:35;;;;;;;;;;;;;;;23.66;30.29;97923.56;4901442;29;920;-76
2023/07/14 09:37:01;;;;;;;;;;;;;;;23.69;30.39;97925.50;4901750;29;1304;-75
2023/07/14 09:39:37;;;;;;;;;;;;;;;23.84;29.97;97926.56;4886245;29;981;-75
2023/07/14 09:42:09;;;;;;;;;;;;;;;23.85;29.77;97928.13;4901900;29;872;-75
2023/07/14 09:44:34;;;;;;;;;;;;;;;23.67;30.10;97927.97;4885681;29;1012;-75
2023/07/14 09:47:02;;;;;;;;;;;;;;;23.87;29.81;97925.63;4885760;29;1208;-76
2023/07/14 09:49:28;;;;;;;;;;;;;;;23.57;30.40;97923.44;4882191;29;1915;-75
2023/07/14 09:52:00;;;;;;;;;;;;;;;23.74;30.13;97933.44;4882935;29;989;-76
2023/07/14 09:54:26;;;;;;;;;;;;;;;23.76;30.05;97925.22;4882568;29;835;-76
2023/07/14 09:56:51;;;;;;;;;;;;;;;23.79;30.09;97941.34;4882772;29;1156;-75
2023/07/14 09:59:18;;;;;;;;;;;;;;;23.57;30.20;97924.28;4900206;29;982;-76
2023/07/14 10:01:51;;;;;;;;;;;;;;;23.49;30.74;97922.91;4908098;28;1058;-76
2023/07/14 10:04:16;;;;;;;;;;;;;;;23.67;30.10;97925.13;4961517;28;920;-76
2023/07/14 10:06:42;;;;;;;;;;;;;;;23.57;30.32;97931.97;4961587;28;829;-76
2023/07/14 10:09:11;;;;;;;;;;;;;;;23.82;30.18;97934.72;4961361;28;1906;-75
2023/07/14 10:11:43;;;;;;;;;;;;;;;23.82;29.87;97934.72;4960924;28;896;-75
2023/07/14 10:14:27;;;;;;;;;;;;;;;23.90;29.60;97929.59;4977273;28;1273;-76
2023/07/14 10:16:56;;;;;;;;;;;;;;;23.86;29.68;97935.41;4952566;29;1371;-76
2023/07/14 10:19:22;;;;;;;;;;;;;;;23.80;29.79;97931.56;4961401;28;960;-76
2023/07/14 10:21:51;;;;;;;;;;;;;;;23.56;30.26;97928.34;5001281;28;755;-75
2023/07/14 10:24:18;;;;;;;;;;;;;;;23.66;30.04;97926.41;4957172;29;1301;-76
2023/07/14 10:27:09;;;;;;;;;;;;;;;23.57;30.08;97929.13;4942036;29;983;-75
2023/07/14 10:29:48;;;;;;;;;;;;;;;23.79;29.99;97930.00;4924155;29;1910;-76
2023/07/14 10:32:49;;;;;;;;;;;;;;;23.52;30.35;97932.56;4941877;29;746;-76
2023/07/14 10:35:25;;;;;;;;;;;;;;;23.61;30.49;97924.13;4919406;29;1023;-76
2023/07/14 10:37:54;;;;;;;;;;;;;;;23.70;30.19;97926.28;4903233;29;1189;-76
2023/07/14 10:40:20;;;;;;;;;;;;;;;23.32;30.73;97916.63;4903648;29;766;-76
2023/07/14 10:43:24;;;;;;;;;;;;;;;23.57;30.14;97912.09;4903843;29;998;-75
2023/07/14 10:45:57;;;;;;;;;;;;;;;23.56;30.33;97916.97;4827370;29;718;-75
2023/07/14 10:48:26;;;;;;;;;;;;;;;23.73;29.68;97920.47;4841692;29;820;-76
2023/07/14 10:51:00;;;;;;;;;;;;;;;23.67;29.85;97921.50;4841976;29;1915;-76
2023/07/14 10:53:32;;;;;;;;;;;;;;;23.75;29.83;97914.31;4841494;29;826;-76
2023/07/14 10:55:59;;;;;;;;;;;;;;;23.68;29.97;97915.38;4841405;29;1448;-75
2023/07/14 10:58:30;;;;;;;;;;;;;;;23.74;29.86;97916.38;4814025;29;1080;-76
2023/07/14 11:04:34;;;;;;;;;;;;;;;23.67;30.06;97908.09;4844472;29;1058;-75
2023/07/14 11:07:01;;;;;;;;;;;;;;;23.64;30.03;97906.19;4814477;29;782;-76
2023/07/14 11:09:28;;;;;;;;;;;;;;;23.49;30.23;97910.78;4857723;29;1935;-76
2023/07/14 11:11:56;;;;;;;;;;;;;;;23.30;30.89;97904.91;4919289;29;869;-76
2023/07/14 11:14:36;;;;;;;;;;;;;;;23.77;29.84;97908.97;4919347;29;776;-76
2023/07/14 11:17:10;;;;;;;;;;;;;;;23.77;30.01;97909.75;4969989;28;1245;-76
2023/07/14 11:19:44;;;;;;;;;;;;;;;23.82;29.89;97906.31;4956804;29;816;-76
2023/07/14 11:22:13;;;;;;;;;;;;;;;23.95;29.45;97914.00;4925133;29;1272;-76
2023/07/14 11:24:40;;;;;;;;;;;;;;;23.72;30.02;97913.19;4924823;29;1276;-76
2023/07/14 11:27:20;;;;;;;;;;;;;;;23.84;29.82;97898.16;4925335;29;803;-76
2023/07/14 11:30:06;;;;;;;;;;;;;;;23.86;30.03;97901.31;4925546;29;1977;-77
2023/07/14 11:33:07;;;;;;;;;;;;;;;23.71;30.02;97907.97;4940708;29;1088;-77
2023/07/14 11:35:34;;;;;;;;;;;;;;;23.73;30.20;97902.66;4900181;29;806;-77
2023/07/14 11:38:12;;;;;;;;;;;;;;;23.75;29.90;97903.75;4884285;29;843;-77
2023/07/14 11:40:40;;;;;;;;;;;;;;;23.78;29.92;97902.84;4869554;29;812;-76
2023/07/14 11:43:07;;;;;;;;;;;;;;;24.03;29.58;97892.56;4884086;29;1001;-77
2023/07/14 11:45:33;;;;;;;;;;;;;;;23.69;30.10;97890.63;4865944;29;1250;-76
2023/07/14 11:47:59;;;;;;;;;;;;;;;23.52;30.38;97887.13;4865434;29;925;-76
2023/07/14 11:50:31;;;;;;;;;;;;;;;23.89;30.02;97889.03;4890649;29;1923;-76
2023/07/14 11:52:57;;;;;;;;;;;;;;;23.53;30.41;97888.72;4941265;29;788;-76
2023/07/14 11:55:23;;;;;;;;;;;;;;;23.77;30.00;97880.56;4925650;29;1237;-77
2023/07/14 11:57:50;;;;;;;;;;;;;;;23.87;30.06;97885.84;4925109;29;802;-76
2023/07/14 12:00:20;;;;;;;;;;;;;;;23.63;30.38;97879.06;4940875;29;772;-76
2023/07/14 12:02:46;;;;;;;;;;;;;;;23.63;30.39;97881.88;4902921;29;975;-76
2023/07/14 12:05:15;;;;;;;;;;;;;;;23.82;30.30;97888.47;4903051;29;1149;-76
2023/07/14 12:07:59;;;;;;;;;;;;;;;23.80;30.09;97883.28;4887575;29;968;-76
2023/07/14 12:10:42;;;;;;;;;;;;;;;23.72;30.25;97881.94;4936085;29;1910;-76
2023/07/14 12:13:24;;;;;;;;;;;;;;;23.77;30.16;97881.34;4909028;29;1222;-77
2023/07/14 12:15:55;;;;;;;;;;;;;;;23.91;29.90;97880.81;4925239;29;1319;-77
2023/07/14 12:18:33;;;;;;;;;;;;;;;23.64;30.50;97878.59;4924518;29;980;-76
2023/07/14 12:21:13;;;;;;;;;;;;;;;23.35;30.89;97884.47;4925103;29;716;-77
2023/07/14 12:23:39;;;;;;;;;;;;;;;23.77;30.07;97887.03;4954754;28;1227;-76
2023/07/14 12:26:11;;;;;;;;;;;;;;;23.65;30.14;97885.84;4944149;29;760;-77
2023/07/14 12:28:37;;;;;;;;;;;;;;;23.66;30.20;97886.63;4959571;29;987;-77
2023/07/14 12:31:12;;;;;;;;;;;;;;;23.52;30.41;97885.09;4944079;29;1915;-77
2023/07/14 12:33:39;;;;;;;;;;;;;;;23.82;29.79;97883.59;4970319;28;1256;-78
2023/07/14 12:36:04;;;;;;;;;;;;;;;23.79;30.09;97890.22;4986272;28;869;-77
2023/07/14 12:38:30;;;;;;;;;;;;;;;23.39;30.59;97887.97;4986919;28;1232;-77
2023/07/14 12:40:56;;;;;;;;;;;;;;;23.60;30.29;97877.88;4986829;28;783;-77
2023/07/14 12:43:25;;;;;;;;;;;;;;;23.58;30.11;97885.28;4986385;28;1132;-76
2023/07/14 12:45:51;;;;;;;;;;;;;;;23.43;30.59;97885.00;5003015;28;716;-78
2023/07/14 12:48:17;;;;;;;;;;;;;;;23.50;30.15;97879.06;4986612;28;772;-77
2023/07/14 12:50:43;;;;;;;;;;;;;;;23.83;29.68;97882.34;5003062;28;1975;-76
2023/07/14 12:53:12;;;;;;;;;;;;;;;23.77;29.86;97881.34;4959559;29;839;-77
2023/07/14 12:55:38;;;;;;;;;;;;;;;23.56;30.04;97882.09;4943822;29;823;-77
2023/07/14 13:01:39;;;;;;;;;;;;;;;23.77;29.55;97880.56;4939920;29;1064;-77
2023/07/14 13:04:05;;;;;;;;;;;;;;;23.78;29.87;97877.28;4939834;29;1009;-77
2023/07/14 13:06:30;;;;;;;;;;;;;;;23.83;29.42;97876.66;4921196;29;815;-77
2023/07/14 13:08:56;;;;;;;;;;;;;;;23.61;30.02;97879.47;4905536;29;1907;-77
2023/07/14 13:11:22;;;;;;;;;;;;;;;23.60;29.85;97894.13;4905253;29;1363;-77
2023/07/14 13:13:52;;;;;;;;;;;;;;;23.77;29.64;97895.53;4889502;29;886;-77
2023/07/14 13:16:17;;;;;;;;;;;;;;;23.90;29.28;97884.91;4890017;29;884;-77
2023/07/14 13:18:52;;;;;;;;;;;;;;;23.62;29.93;97885.94;4904929;29;1148;-78